Elk, CA

3:18 AM PDT on September 21, 2014 (GMT -0700)
Petaluma | Change Station
CLOSE
Current Station
Airport
Location: Petaluma,
Elevation: 89 ft
Nearby Weather Stations

Elev 89 ft 38.26 °N, 122.61 °W | Updated 23 minutes ago

Partly Cloudy
Partly Cloudy
63 °F
Feels Like 63 °F
N
7
Wind Variable Wind from WNW

Today
High -- | Low -- °F
--% Chance of Precip.
Yesterday
High -- | Low -- °F
Precip. -- in
7:01 AM 7:13 PM
Waning Crescent, 7% visible
Pressure 29.97 in
Visibility 10.0 miles
Clouds Overcast 1200 ft
Dew Point 57 °F
Humidity 82%
Rainfall 0.00 in
Snow Depth 0 in , 0 in , 0 in
UV 0 out of 12
Pollen 6.00 out of 12
Air Quality Not available.
Flu Activity Not available.
METAR KO69 210955Z AUTO 30006KT 10SM OVC012 17/14 A2997 RMK AO1

More Conditions Fewer Conditions

Pressure 29.97 in
Visibility 10.0 miles
Clouds Overcast 1200 ft
Dew Point 57 °F
Humidity 82%
Rainfall 0.00 in
Snow Depth 0 in , 0 in , 0 in
UV 0 out of 12
Pollen 6.00 out of 12
Air Quality Not available.
Flu Activity Not available.
METAR KO69 210955Z AUTO 30006KT 10SM OVC012 17/14 A2997 RMK AO1

More Conditions Fewer Conditions

10-Day Weather Forecast

Almanac

Astronomy

Sep. 21, 2014 Rise Set
Actual Time 7:01 AM PDT 7:13 PM PDT
Civil Twilight 6:34 AM PDT 7:40 PM PDT
Nautical Twilight 6:03 AM PDT 8:11 PM PDT
Astronomical Twilight 5:31 AM PDT 8:42 PM PDT
Moon 4:41 AM PDT 5:51 PM PDT
Length of Visible Light 13h 05m
Length of Day
12h 11m
Tomorrow will be 2m 31s shorter.
Waning Crescent, 7% of the Moon is Illuminated
Today
Waning Crescent
Sep 24
New
Oct 1
First Quarter
Oct 8
Full
Oct 15
Last Quarter

Today's Extremes

State Highs State Lows

Community

WunderPhotos

Upload Photos

1,755,107 photos uploaded!

Nearby

Snow Depth

Station Depth Elevation
Ebbetts Pass 0 in 8700 ft
Monitor Pass 0 in 8350 ft
Adin Mountain 0 in 6200 ft
Tahoe City Cross 0 in 6750 ft
Spratt Creek 1 in 6200 ft

Earthquake Activity

City Distance Mag. Time & Date
Cloverdale, California 49 miles 2.5 9:15 PM PDT
2014-09-20
Eureka, California 125 miles 3.1 1:33 PM PDT
2014-09-20
Livermore, California 147 miles 2.6 3:37 AM PDT
2014-09-19
The Geysers, California 59 miles 2.5 11:29 PM PDT
2014-09-17
Minimum magnitude displayed is 2.5.

Coastal Water Temperatures

Place Temperature
Arena Cove, CA 62.1 °F
North Spit, CA 59.0 °F
Point Reyes, CA 64.9 °F
San Francisco, CA 64.9 °F
Richmond, CA 68.0 °F

Nearby Weather Stations